Deadhorse, Alaska
Current Conditions -  °F | °C
As of 4:53 AM on Monday 24 Nov 2014 (Local Time) from PASC Reporting Station
Clear Clear  
Wind Chill: -37°   Ceiling: Unl
Heat Index: -16°   Visibility: 10mi
Dew Point: -23°   Wind: 12mph
Humidity: 71%   Direction: 230°SW
Pressure: 29.79"   Gusts: NA
Location:  70.2°N, 148.46°W
Report Text: PASC 241353Z 23010KT 10SM CLR M27/M31 A2979 RMK AO2 SLP092 T12671306 $
Loading
Personal Weather Stations






























Interactive Weather Map New forecast layout! Learn more

10-Day Weather Forecast

Advertisements
Track Severe Weather on mobile